sensor_id;sensor_type;location;lat;lon;timestamp;pressure;altitude;pressure_sealevel;temperature
20289;BMP180;10303;51.960;8.372;2022-07-21T00:01:50;100666.00;;;23.20
20289;BMP180;10303;51.960;8.372;2022-07-21T00:04:17;100644.00;;;23.20
20289;BMP180;10303;51.960;8.372;2022-07-21T00:06:44;100638.00;;;23.10
20289;BMP180;10303;51.960;8.372;2022-07-21T00:09:12;100652.00;;;23.10
20289;BMP180;10303;51.960;8.372;2022-07-21T00:11:40;100654.00;;;23.10
20289;BMP180;10303;51.960;8.372;2022-07-21T00:14:08;100647.00;;;23.10
20289;BMP180;10303;51.960;8.372;2022-07-21T00:16:36;100647.00;;;23.10
20289;BMP180;10303;51.960;8.372;2022-07-21T00:19:03;100648.00;;;23.20
20289;BMP180;10303;51.960;8.372;2022-07-21T00:21:29;100638.00;;;23.20
20289;BMP180;10303;51.960;8.372;2022-07-21T00:23:55;100630.00;;;23.20
20289;BMP180;10303;51.960;8.372;2022-07-21T00:26:21;100632.00;;;23.20
20289;BMP180;10303;51.960;8.372;2022-07-21T00:28:48;100638.00;;;23.20
20289;BMP180;10303;51.960;8.372;2022-07-21T00:31:15;100651.00;;;23.20
20289;BMP180;10303;51.960;8.372;2022-07-21T00:33:41;100666.00;;;23.30
20289;BMP180;10303;51.960;8.372;2022-07-21T00:36:07;100681.00;;;23.20
20289;BMP180;10303;51.960;8.372;2022-07-21T00:38:34;100674.00;;;23.20
20289;BMP180;10303;51.960;8.372;2022-07-21T00:41:00;100655.00;;;23.20
20289;BMP180;10303;51.960;8.372;2022-07-21T00:43:26;100637.00;;;23.20
20289;BMP180;10303;51.960;8.372;2022-07-21T00:45:54;100631.00;;;23.20
20289;BMP180;10303;51.960;8.372;2022-07-21T00:48:20;100655.00;;;23.20
20289;BMP180;10303;51.960;8.372;2022-07-21T00:50:47;100689.00;;;23.20
20289;BMP180;10303;51.960;8.372;2022-07-21T00:53:13;100714.00;;;23.20
20289;BMP180;10303;51.960;8.372;2022-07-21T00:55:43;100727.00;;;23.20
20289;BMP180;10303;51.960;8.372;2022-07-21T00:58:10;100729.00;;;23.20
20289;BMP180;10303;51.960;8.372;2022-07-21T01:00:36;100732.00;;;23.20
20289;BMP180;10303;51.960;8.372;2022-07-21T01:03:03;100731.00;;;23.20
20289;BMP180;10303;51.960;8.372;2022-07-21T01:05:29;100724.00;;;23.20
20289;BMP180;10303;51.960;8.372;2022-07-21T01:07:56;100723.00;;;23.20
20289;BMP180;10303;51.960;8.372;2022-07-21T01:10:29;100714.00;;;23.30
20289;BMP180;10303;51.960;8.372;2022-07-21T01:12:56;100686.00;;;23.30
20289;BMP180;10303;51.960;8.372;2022-07-21T01:15:24;100690.00;;;23.30
20289;BMP180;10303;51.960;8.372;2022-07-21T01:17:50;100697.00;;;23.30
20289;BMP180;10303;51.960;8.372;2022-07-21T01:20:22;100697.00;;;23.30
20289;BMP180;10303;51.960;8.372;2022-07-21T01:22:52;100709.00;;;23.30
20289;BMP180;10303;51.960;8.372;2022-07-21T01:25:20;100690.00;;;23.30
20289;BMP180;10303;51.960;8.372;2022-07-21T01:27:46;100681.00;;;23.30
20289;BMP180;10303;51.960;8.372;2022-07-21T01:30:13;100670.00;;;23.40
20289;BMP180;10303;51.960;8.372;2022-07-21T01:32:40;100664.00;;;23.40
20289;BMP180;10303;51.960;8.372;2022-07-21T01:35:09;100665.00;;;23.40
20289;BMP180;10303;51.960;8.372;2022-07-21T01:37:41;100669.00;;;23.40
20289;BMP180;10303;51.960;8.372;2022-07-21T01:40:09;100655.00;;;23.40
20289;BMP180;10303;51.960;8.372;2022-07-21T01:42:53;100658.00;;;23.40
20289;BMP180;10303;51.960;8.372;2022-07-21T01:45:20;100673.00;;;23.40
20289;BMP180;10303;51.960;8.372;2022-07-21T01:47:48;100658.00;;;23.40
20289;BMP180;10303;51.960;8.372;2022-07-21T01:50:14;100655.00;;;23.40
20289;BMP180;10303;51.960;8.372;2022-07-21T01:52:40;100654.00;;;23.40
20289;BMP180;10303;51.960;8.372;2022-07-21T01:55:07;100648.00;;;23.40
20289;BMP180;10303;51.960;8.372;2022-07-21T01:57:33;100633.00;;;23.40
20289;BMP180;10303;51.960;8.372;2022-07-21T01:59:58;100621.00;;;23.40
20289;BMP180;10303;51.960;8.372;2022-07-21T02:02:24;100631.00;;;23.40
20289;BMP180;10303;51.960;8.372;2022-07-21T02:04:50;100646.00;;;23.40
20289;BMP180;10303;51.960;8.372;2022-07-21T02:07:17;100643.00;;;23.40
20289;BMP180;10303;51.960;8.372;2022-07-21T02:09:43;100648.00;;;23.40
20289;BMP180;10303;51.960;8.372;2022-07-21T02:12:09;100631.00;;;23.40
20289;BMP180;10303;51.960;8.372;2022-07-21T02:14:35;100614.00;;;23.40
20289;BMP180;10303;51.960;8.372;2022-07-21T02:17:02;100619.00;;;23.40
20289;BMP180;10303;51.960;8.372;2022-07-21T02:19:28;100619.00;;;23.40
20289;BMP180;10303;51.960;8.372;2022-07-21T02:21:54;100618.00;;;23.40
20289;BMP180;10303;51.960;8.372;2022-07-21T02:24:20;100613.00;;;23.40
20289;BMP180;10303;51.960;8.372;2022-07-21T02:26:45;100625.00;;;23.40
20289;BMP180;10303;51.960;8.372;2022-07-21T02:29:11;100639.00;;;23.40
20289;BMP180;10303;51.960;8.372;2022-07-21T02:31:37;100635.00;;;23.40
20289;BMP180;10303;51.960;8.372;2022-07-21T02:34:03;100638.00;;;23.40
20289;BMP180;10303;51.960;8.372;2022-07-21T02:36:29;100644.00;;;23.40
20289;BMP180;10303;51.960;8.372;2022-07-21T02:38:55;100645.00;;;23.40
20289;BMP180;10303;51.960;8.372;2022-07-21T02:41:21;100656.00;;;23.40
20289;BMP180;10303;51.960;8.372;2022-07-21T02:43:47;100658.00;;;23.40
20289;BMP180;10303;51.960;8.372;2022-07-21T02:46:13;100651.00;;;23.40
20289;BMP180;10303;51.960;8.372;2022-07-21T02:48:39;100656.00;;;23.30
20289;BMP180;10303;51.960;8.372;2022-07-21T02:51:05;100649.00;;;23.30
20289;BMP180;10303;51.960;8.372;2022-07-21T02:53:30;100654.00;;;23.20
20289;BMP180;10303;51.960;8.372;2022-07-21T02:55:56;100665.00;;;23.20
20289;BMP180;10303;51.960;8.372;2022-07-21T02:58:28;100674.00;;;23.00
20289;BMP180;10303;51.960;8.372;2022-07-21T03:01:03;100677.00;;;23.00
20289;BMP180;10303;51.960;8.372;2022-07-21T03:03:36;100669.00;;;22.90
20289;BMP180;10303;51.960;8.372;2022-07-21T03:06:03;100664.00;;;22.90
20289;BMP180;10303;51.960;8.372;2022-07-21T03:08:30;100653.00;;;22.80
20289;BMP180;10303;51.960;8.372;2022-07-21T03:10:56;100653.00;;;22.80
20289;BMP180;10303;51.960;8.372;2022-07-21T03:13:23;100650.00;;;22.70
20289;BMP180;10303;51.960;8.372;2022-07-21T03:15:49;100655.00;;;22.70
20289;BMP180;10303;51.960;8.372;2022-07-21T03:18:15;100659.00;;;22.60
20289;BMP180;10303;51.960;8.372;2022-07-21T03:20:45;100673.00;;;22.60
20289;BMP180;10303;51.960;8.372;2022-07-21T03:23:11;100659.00;;;22.50
20289;BMP180;10303;51.960;8.372;2022-07-21T03:25:38;100662.00;;;22.50
20289;BMP180;10303;51.960;8.372;2022-07-21T03:28:04;100672.00;;;22.50
20289;BMP180;10303;51.960;8.372;2022-07-21T03:30:31;100680.00;;;22.50
20289;BMP180;10303;51.960;8.372;2022-07-21T03:32:57;100682.00;;;22.50
20289;BMP180;10303;51.960;8.372;2022-07-21T03:35:24;100685.00;;;22.50
20289;BMP180;10303;51.960;8.372;2022-07-21T03:37:56;100683.00;;;22.40
20289;BMP180;10303;51.960;8.372;2022-07-21T03:40:26;100688.00;;;22.40
20289;BMP180;10303;51.960;8.372;2022-07-21T03:42:56;100690.00;;;22.40
20289;BMP180;10303;51.960;8.372;2022-07-21T03:45:23;100693.00;;;22.40
20289;BMP180;10303;51.960;8.372;2022-07-21T03:47:50;100693.00;;;22.30
20289;BMP180;10303;51.960;8.372;2022-07-21T03:50:16;100692.00;;;22.20
20289;BMP180;10303;51.960;8.372;2022-07-21T03:52:44;100691.00;;;22.20
20289;BMP180;10303;51.960;8.372;2022-07-21T03:55:10;100691.00;;;22.10
20289;BMP180;10303;51.960;8.372;2022-07-21T03:57:49;100700.00;;;22.00
20289;BMP180;10303;51.960;8.372;2022-07-21T04:02:49;100708.00;;;21.90
20289;BMP180;10303;51.960;8.372;2022-07-21T04:05:17;100712.00;;;21.90
20289;BMP180;10303;51.960;8.372;2022-07-21T04:07:47;100714.00;;;21.80
20289;BMP180;10303;51.960;8.372;2022-07-21T04:10:16;100704.00;;;21.80
20289;BMP180;10303;51.960;8.372;2022-07-21T04:12:44;100692.00;;;21.80
20289;BMP180;10303;51.960;8.372;2022-07-21T04:15:11;100705.00;;;21.80
20289;BMP180;10303;51.960;8.372;2022-07-21T04:17:38;100710.00;;;21.80
20289;BMP180;10303;51.960;8.372;2022-07-21T04:20:08;100696.00;;;21.80
20289;BMP180;10303;51.960;8.372;2022-07-21T04:22:35;100702.00;;;21.80
20289;BMP180;10303;51.960;8.372;2022-07-21T04:25:02;100701.00;;;21.80
20289;BMP180;10303;51.960;8.372;2022-07-21T04:27:28;100701.00;;;21.80
20289;BMP180;10303;51.960;8.372;2022-07-21T04:29:54;100691.00;;;21.90
20289;BMP180;10303;51.960;8.372;2022-07-21T04:32:20;100689.00;;;21.90
20289;BMP180;10303;51.960;8.372;2022-07-21T04:34:45;100691.00;;;21.90
20289;BMP180;10303;51.960;8.372;2022-07-21T04:37:11;100679.00;;;21.90
20289;BMP180;10303;51.960;8.372;2022-07-21T04:39:37;100684.00;;;22.00
20289;BMP180;10303;51.960;8.372;2022-07-21T04:42:04;100683.00;;;22.00
20289;BMP180;10303;51.960;8.372;2022-07-21T04:44:30;100677.00;;;22.10
20289;BMP180;10303;51.960;8.372;2022-07-21T04:46:57;100684.00;;;22.10
20289;BMP180;10303;51.960;8.372;2022-07-21T04:49:23;100672.00;;;22.10
20289;BMP180;10303;51.960;8.372;2022-07-21T04:51:49;100671.00;;;22.20
20289;BMP180;10303;51.960;8.372;2022-07-21T04:54:15;100679.00;;;22.20
20289;BMP180;10303;51.960;8.372;2022-07-21T04:56:42;100680.00;;;22.20
20289;BMP180;10303;51.960;8.372;2022-07-21T04:59:08;100690.00;;;22.20
20289;BMP180;10303;51.960;8.372;2022-07-21T05:01:36;100689.00;;;22.20
20289;BMP180;10303;51.960;8.372;2022-07-21T05:04:02;100697.00;;;22.30
20289;BMP180;10303;51.960;8.372;2022-07-21T05:06:29;100692.00;;;22.30
20289;BMP180;10303;51.960;8.372;2022-07-21T05:08:55;100696.00;;;22.40
20289;BMP180;10303;51.960;8.372;2022-07-21T05:11:21;100696.00;;;22.40
20289;BMP180;10303;51.960;8.372;2022-07-21T05:13:47;100701.00;;;22.50
20289;BMP180;10303;51.960;8.372;2022-07-21T05:16:13;100696.00;;;22.60
20289;BMP180;10303;51.960;8.372;2022-07-21T05:18:39;100688.00;;;22.60
20289;BMP180;10303;51.960;8.372;2022-07-21T05:21:05;100676.00;;;22.70
20289;BMP180;10303;51.960;8.372;2022-07-21T05:23:31;100666.00;;;22.70
20289;BMP180;10303;51.960;8.372;2022-07-21T05:25:57;100661.00;;;22.80
20289;BMP180;10303;51.960;8.372;2022-07-21T05:28:23;100666.00;;;22.80
20289;BMP180;10303;51.960;8.372;2022-07-21T05:30:49;100666.00;;;22.90
20289;BMP180;10303;51.960;8.372;2022-07-21T05:33:14;100672.00;;;22.90
20289;BMP180;10303;51.960;8.372;2022-07-21T05:35:40;100670.00;;;23.00
20289;BMP180;10303;51.960;8.372;2022-07-21T05:38:06;100671.00;;;23.00
20289;BMP180;10303;51.960;8.372;2022-07-21T05:40:32;100680.00;;;23.00
20289;BMP180;10303;51.960;8.372;2022-07-21T05:42:58;100691.00;;;23.10
20289;BMP180;10303;51.960;8.372;2022-07-21T05:45:24;100693.00;;;23.10
20289;BMP180;10303;51.960;8.372;2022-07-21T05:47:50;100704.00;;;23.10
20289;BMP180;10303;51.960;8.372;2022-07-21T05:50:16;100712.00;;;23.20
20289;BMP180;10303;51.960;8.372;2022-07-21T05:52:42;100722.00;;;23.20
20289;BMP180;10303;51.960;8.372;2022-07-21T05:55:09;100726.00;;;23.20
20289;BMP180;10303;51.960;8.372;2022-07-21T05:57:36;100731.00;;;23.20
20289;BMP180;10303;51.960;8.372;2022-07-21T06:00:03;100737.00;;;23.20
20289;BMP180;10303;51.960;8.372;2022-07-21T06:02:34;100731.00;;;23.20
20289;BMP180;10303;51.960;8.372;2022-07-21T06:05:00;100734.00;;;23.20
20289;BMP180;10303;51.960;8.372;2022-07-21T06:07:26;100730.00;;;23.10
20289;BMP180;10303;51.960;8.372;2022-07-21T06:09:52;100733.00;;;23.10
20289;BMP180;10303;51.960;8.372;2022-07-21T06:12:18;100734.00;;;23.10
20289;BMP180;10303;51.960;8.372;2022-07-21T06:14:44;100740.00;;;23.20
20289;BMP180;10303;51.960;8.372;2022-07-21T06:17:10;100738.00;;;23.20
20289;BMP180;10303;51.960;8.372;2022-07-21T06:19:36;100737.00;;;23.20
20289;BMP180;10303;51.960;8.372;2022-07-21T06:22:02;100748.00;;;23.20
20289;BMP180;10303;51.960;8.372;2022-07-21T06:24:29;100741.00;;;23.20
20289;BMP180;10303;51.960;8.372;2022-07-21T06:26:55;100749.00;;;23.20
20289;BMP180;10303;51.960;8.372;2022-07-21T06:29:23;100757.00;;;23.20
20289;BMP180;10303;51.960;8.372;2022-07-21T06:31:49;100750.00;;;23.20
20289;BMP180;10303;51.960;8.372;2022-07-21T06:34:15;100760.00;;;23.30
20289;BMP180;10303;51.960;8.372;2022-07-21T06:36:41;100757.00;;;23.30
20289;BMP180;10303;51.960;8.372;2022-07-21T06:39:07;100762.00;;;23.30
20289;BMP180;10303;51.960;8.372;2022-07-21T06:41:33;100767.00;;;23.30
20289;BMP180;10303;51.960;8.372;2022-07-21T06:43:59;100766.00;;;23.30
20289;BMP180;10303;51.960;8.372;2022-07-21T06:46:25;100775.00;;;23.40
20289;BMP180;10303;51.960;8.372;2022-07-21T06:48:51;100776.00;;;23.40
20289;BMP180;10303;51.960;8.372;2022-07-21T06:51:17;100773.00;;;23.50
20289;BMP180;10303;51.960;8.372;2022-07-21T06:53:43;100774.00;;;23.50
20289;BMP180;10303;51.960;8.372;2022-07-21T06:56:09;100773.00;;;23.60
20289;BMP180;10303;51.960;8.372;2022-07-21T06:58:35;100774.00;;;23.60
20289;BMP180;10303;51.960;8.372;2022-07-21T07:01:01;100779.00;;;23.60
20289;BMP180;10303;51.960;8.372;2022-07-21T07:03:27;100775.00;;;23.70
20289;BMP180;10303;51.960;8.372;2022-07-21T07:05:53;100773.00;;;23.70
20289;BMP180;10303;51.960;8.372;2022-07-21T07:08:20;100771.00;;;23.70
20289;BMP180;10303;51.960;8.372;2022-07-21T07:10:46;100773.00;;;23.70
20289;BMP180;10303;51.960;8.372;2022-07-21T07:13:13;100781.00;;;23.70
20289;BMP180;10303;51.960;8.372;2022-07-21T07:15:39;100779.00;;;23.70
20289;BMP180;10303;51.960;8.372;2022-07-21T07:18:05;100781.00;;;23.70
20289;BMP180;10303;51.960;8.372;2022-07-21T07:20:32;100781.00;;;23.70
20289;BMP180;10303;51.960;8.372;2022-07-21T07:22:58;100776.00;;;23.70
20289;BMP180;10303;51.960;8.372;2022-07-21T07:25:24;100778.00;;;23.70
20289;BMP180;10303;51.960;8.372;2022-07-21T07:27:51;100782.00;;;23.70
20289;BMP180;10303;51.960;8.372;2022-07-21T07:30:18;100784.00;;;23.70
20289;BMP180;10303;51.960;8.372;2022-07-21T07:32:45;100788.00;;;23.80
20289;BMP180;10303;51.960;8.372;2022-07-21T07:35:14;100780.00;;;23.80
20289;BMP180;10303;51.960;8.372;2022-07-21T07:37:43;100786.00;;;23.90
20289;BMP180;10303;51.960;8.372;2022-07-21T07:40:17;100790.00;;;23.90
20289;BMP180;10303;51.960;8.372;2022-07-21T07:42:43;100782.00;;;23.90
20289;BMP180;10303;51.960;8.372;2022-07-21T07:45:11;100774.00;;;24.00
20289;BMP180;10303;51.960;8.372;2022-07-21T07:47:37;100783.00;;;24.00
20289;BMP180;10303;51.960;8.372;2022-07-21T07:50:07;100783.00;;;24.00
20289;BMP180;10303;51.960;8.372;2022-07-21T07:52:35;100782.00;;;24.10
20289;BMP180;10303;51.960;8.372;2022-07-21T07:55:02;100778.00;;;24.10
20289;BMP180;10303;51.960;8.372;2022-07-21T07:57:33;100787.00;;;24.10
20289;BMP180;10303;51.960;8.372;2022-07-21T07:59:59;100782.00;;;24.20
20289;BMP180;10303;51.960;8.372;2022-07-21T08:02:25;100781.00;;;24.20
20289;BMP180;10303;51.960;8.372;2022-07-21T08:04:51;100779.00;;;24.20
20289;BMP180;10303;51.960;8.372;2022-07-21T08:07:17;100780.00;;;24.20
20289;BMP180;10303;51.960;8.372;2022-07-21T08:09:43;100776.00;;;24.20
20289;BMP180;10303;51.960;8.372;2022-07-21T08:12:08;100783.00;;;24.20
20289;BMP180;10303;51.960;8.372;2022-07-21T08:14:34;100773.00;;;24.20
20289;BMP180;10303;51.960;8.372;2022-07-21T08:17:00;100776.00;;;24.30
20289;BMP180;10303;51.960;8.372;2022-07-21T08:19:27;100776.00;;;24.30
20289;BMP180;10303;51.960;8.372;2022-07-21T08:21:53;100770.00;;;24.40
20289;BMP180;10303;51.960;8.372;2022-07-21T08:24:19;100773.00;;;24.40
20289;BMP180;10303;51.960;8.372;2022-07-21T08:26:45;100768.00;;;24.50
20289;BMP180;10303;51.960;8.372;2022-07-21T08:29:12;100766.00;;;24.50
20289;BMP180;10303;51.960;8.372;2022-07-21T08:31:38;100767.00;;;24.60
20289;BMP180;10303;51.960;8.372;2022-07-21T08:34:03;100771.00;;;24.60
20289;BMP180;10303;51.960;8.372;2022-07-21T08:36:29;100768.00;;;24.60
20289;BMP180;10303;51.960;8.372;2022-07-21T08:38:55;100768.00;;;24.70
20289;BMP180;10303;51.960;8.372;2022-07-21T08:41:22;100771.00;;;24.70
20289;BMP180;10303;51.960;8.372;2022-07-21T08:43:50;100768.00;;;24.80
20289;BMP180;10303;51.960;8.372;2022-07-21T08:46:16;100770.00;;;25.00
20289;BMP180;10303;51.960;8.372;2022-07-21T08:48:44;100765.00;;;25.10
20289;BMP180;10303;51.960;8.372;2022-07-21T08:51:10;100758.00;;;25.20
20289;BMP180;10303;51.960;8.372;2022-07-21T08:53:37;100759.00;;;25.40
20289;BMP180;10303;51.960;8.372;2022-07-21T08:56:03;100751.00;;;25.50
20289;BMP180;10303;51.960;8.372;2022-07-21T08:58:29;100763.00;;;25.50
20289;BMP180;10303;51.960;8.372;2022-07-21T09:00:55;100770.00;;;25.50
20289;BMP180;10303;51.960;8.372;2022-07-21T09:03:25;100763.00;;;25.50
20289;BMP180;10303;51.960;8.372;2022-07-21T09:06:14;100765.00;;;25.50
20289;BMP180;10303;51.960;8.372;2022-07-21T09:08:46;100763.00;;;25.60
20289;BMP180;10303;51.960;8.372;2022-07-21T09:14:03;100769.00;;;25.80
20289;BMP180;10303;51.960;8.372;2022-07-21T09:16:40;100765.00;;;25.70
20289;BMP180;10303;51.960;8.372;2022-07-21T09:19:07;100762.00;;;25.70
20289;BMP180;10303;51.960;8.372;2022-07-21T09:21:40;100760.00;;;25.80
20289;BMP180;10303;51.960;8.372;2022-07-21T09:24:22;100759.00;;;25.90
20289;BMP180;10303;51.960;8.372;2022-07-21T09:27:20;100761.00;;;26.00
20289;BMP180;10303;51.960;8.372;2022-07-21T09:29:52;100767.00;;;26.00
20289;BMP180;10303;51.960;8.372;2022-07-21T09:32:31;100769.00;;;26.00
20289;BMP180;10303;51.960;8.372;2022-07-21T09:35:08;100757.00;;;26.10
20289;BMP180;10303;51.960;8.372;2022-07-21T09:37:43;100767.00;;;26.10
20289;BMP180;10303;51.960;8.372;2022-07-21T09:40:12;100762.00;;;26.10
20289;BMP180;10303;51.960;8.372;2022-07-21T09:42:49;100766.00;;;26.10
20289;BMP180;10303;51.960;8.372;2022-07-21T09:45:18;100770.00;;;26.20
20289;BMP180;10303;51.960;8.372;2022-07-21T09:47:46;100765.00;;;26.20
20289;BMP180;10303;51.960;8.372;2022-07-21T09:50:14;100767.00;;;26.30
20289;BMP180;10303;51.960;8.372;2022-07-21T09:52:44;100771.00;;;26.30
20289;BMP180;10303;51.960;8.372;2022-07-21T09:55:14;100771.00;;;26.20
20289;BMP180;10303;51.960;8.372;2022-07-21T09:57:43;100772.00;;;26.20
20289;BMP180;10303;51.960;8.372;2022-07-21T10:00:15;100783.00;;;26.10
20289;BMP180;10303;51.960;8.372;2022-07-21T10:02:43;100771.00;;;26.00
20289;BMP180;10303;51.960;8.372;2022-07-21T10:05:20;100768.00;;;25.90
20289;BMP180;10303;51.960;8.372;2022-07-21T10:07:48;100766.00;;;25.90
20289;BMP180;10303;51.960;8.372;2022-07-21T10:10:16;100765.00;;;25.90
20289;BMP180;10303;51.960;8.372;2022-07-21T10:12:43;100767.00;;;26.00
20289;BMP180;10303;51.960;8.372;2022-07-21T10:15:10;100767.00;;;26.00
20289;BMP180;10303;51.960;8.372;2022-07-21T10:17:38;100769.00;;;26.00
20289;BMP180;10303;51.960;8.372;2022-07-21T10:20:16;100759.00;;;26.00
20289;BMP180;10303;51.960;8.372;2022-07-21T10:25:40;100758.00;;;26.10
20289;BMP180;10303;51.960;8.372;2022-07-21T10:28:20;100766.00;;;26.10
20289;BMP180;10303;51.960;8.372;2022-07-21T10:30:54;100765.00;;;26.20
20289;BMP180;10303;51.960;8.372;2022-07-21T10:41:51;100750.00;;;26.80
20289;BMP180;10303;51.960;8.372;2022-07-21T10:47:06;100746.00;;;27.00
20289;BMP180;10303;51.960;8.372;2022-07-21T10:49:59;100749.00;;;27.00
20289;BMP180;10303;51.960;8.372;2022-07-21T10:55:13;100744.00;;;27.20
20289;BMP180;10303;51.960;8.372;2022-07-21T10:57:47;100732.00;;;27.50
20289;BMP180;10303;51.960;8.372;2022-07-21T11:00:26;100737.00;;;27.60
20289;BMP180;10303;51.960;8.372;2022-07-21T11:02:58;100730.00;;;27.70
20289;BMP180;10303;51.960;8.372;2022-07-21T11:05:28;100743.00;;;27.60
20289;BMP180;10303;51.960;8.372;2022-07-21T11:08:19;100738.00;;;27.50
20289;BMP180;10303;51.960;8.372;2022-07-21T11:10:52;100748.00;;;27.40
20289;BMP180;10303;51.960;8.372;2022-07-21T11:13:21;100753.00;;;27.30
20289;BMP180;10303;51.960;8.372;2022-07-21T11:15:59;100753.00;;;27.10
20289;BMP180;10303;51.960;8.372;2022-07-21T11:18:31;100735.00;;;27.00
20289;BMP180;10303;51.960;8.372;2022-07-21T11:21:13;100731.00;;;26.90
20289;BMP180;10303;51.960;8.372;2022-07-21T11:23:48;100733.00;;;26.90
20289;BMP180;10303;51.960;8.372;2022-07-21T11:26:24;100733.00;;;27.00
20289;BMP180;10303;51.960;8.372;2022-07-21T11:29:05;100727.00;;;27.20
20289;BMP180;10303;51.960;8.372;2022-07-21T11:31:44;100723.00;;;27.40
20289;BMP180;10303;51.960;8.372;2022-07-21T11:34:10;100726.00;;;27.50
20289;BMP180;10303;51.960;8.372;2022-07-21T11:36:37;100720.00;;;27.50
20289;BMP180;10303;51.960;8.372;2022-07-21T11:39:07;100725.00;;;27.40
20289;BMP180;10303;51.960;8.372;2022-07-21T11:41:36;100724.00;;;27.30
20289;BMP180;10303;51.960;8.372;2022-07-21T11:44:07;100727.00;;;27.20
20289;BMP180;10303;51.960;8.372;2022-07-21T11:46:52;100722.00;;;27.10
20289;BMP180;10303;51.960;8.372;2022-07-21T11:49:19;100719.00;;;27.20
20289;BMP180;10303;51.960;8.372;2022-07-21T11:51:55;100723.00;;;27.20
20289;BMP180;10303;51.960;8.372;2022-07-21T11:54:37;100713.00;;;27.30
20289;BMP180;10303;51.960;8.372;2022-07-21T11:57:07;100726.00;;;27.30
20289;BMP180;10303;51.960;8.372;2022-07-21T11:59:35;100724.00;;;27.30
20289;BMP180;10303;51.960;8.372;2022-07-21T12:02:19;100715.00;;;27.30
20289;BMP180;10303;51.960;8.372;2022-07-21T12:09:55;100715.00;;;27.30
20289;BMP180;10303;51.960;8.372;2022-07-21T12:12:40;100720.00;;;27.30
20289;BMP180;10303;51.960;8.372;2022-07-21T12:15:26;100711.00;;;27.30
20289;BMP180;10303;51.960;8.372;2022-07-21T12:18:00;100704.00;;;27.30
20289;BMP180;10303;51.960;8.372;2022-07-21T12:23:25;100712.00;;;27.30
20289;BMP180;10303;51.960;8.372;2022-07-21T12:25:55;100706.00;;;27.20
20289;BMP180;10303;51.960;8.372;2022-07-21T12:28:21;100714.00;;;27.10
20289;BMP180;10303;51.960;8.372;2022-07-21T12:30:50;100716.00;;;27.00
20289;BMP180;10303;51.960;8.372;2022-07-21T12:33:20;100729.00;;;26.80
20289;BMP180;10303;51.960;8.372;2022-07-21T12:36:07;100721.00;;;26.70
20289;BMP180;10303;51.960;8.372;2022-07-21T12:38:44;100722.00;;;26.60
20289;BMP180;10303;51.960;8.372;2022-07-21T12:41:19;100719.00;;;26.60
20289;BMP180;10303;51.960;8.372;2022-07-21T12:43:59;100721.00;;;26.60
20289;BMP180;10303;51.960;8.372;2022-07-21T12:46:33;100719.00;;;26.70
20289;BMP180;10303;51.960;8.372;2022-07-21T12:49:08;100718.00;;;26.90
20289;BMP180;10303;51.960;8.372;2022-07-21T12:51:40;100722.00;;;27.00
20289;BMP180;10303;51.960;8.372;2022-07-21T12:54:07;100725.00;;;27.10
20289;BMP180;10303;51.960;8.372;2022-07-21T12:56:35;100722.00;;;27.10
20289;BMP180;10303;51.960;8.372;2022-07-21T12:59:03;100720.00;;;27.20
20289;BMP180;10303;51.960;8.372;2022-07-21T13:01:32;100713.00;;;27.20
20289;BMP180;10303;51.960;8.372;2022-07-21T13:04:00;100721.00;;;27.10
20289;BMP180;10303;51.960;8.372;2022-07-21T13:06:26;100713.00;;;27.10
20289;BMP180;10303;51.960;8.372;2022-07-21T13:08:52;100718.00;;;27.10
20289;BMP180;10303;51.960;8.372;2022-07-21T13:11:20;100712.00;;;27.10
20289;BMP180;10303;51.960;8.372;2022-07-21T13:13:48;100716.00;;;27.10
20289;BMP180;10303;51.960;8.372;2022-07-21T13:16:17;100711.00;;;27.00
20289;BMP180;10303;51.960;8.372;2022-07-21T13:18:43;100722.00;;;27.00
20289;BMP180;10303;51.960;8.372;2022-07-21T13:21:10;100744.00;;;26.90
20289;BMP180;10303;51.960;8.372;2022-07-21T13:23:36;100750.00;;;26.70
20289;BMP180;10303;51.960;8.372;2022-07-21T13:26:03;100755.00;;;26.50
20289;BMP180;10303;51.960;8.372;2022-07-21T13:28:29;100748.00;;;26.20
20289;BMP180;10303;51.960;8.372;2022-07-21T13:30:55;100750.00;;;26.00
20289;BMP180;10303;51.960;8.372;2022-07-21T13:33:21;100743.00;;;25.80
20289;BMP180;10303;51.960;8.372;2022-07-21T13:35:47;100741.00;;;25.70
20289;BMP180;10303;51.960;8.372;2022-07-21T13:38:13;100740.00;;;25.60
20289;BMP180;10303;51.960;8.372;2022-07-21T13:40:42;100744.00;;;25.60
20289;BMP180;10303;51.960;8.372;2022-07-21T13:43:08;100738.00;;;25.60
20289;BMP180;10303;51.960;8.372;2022-07-21T13:45:34;100732.00;;;25.70
20289;BMP180;10303;51.960;8.372;2022-07-21T13:48:00;100728.00;;;25.80
20289;BMP180;10303;51.960;8.372;2022-07-21T13:50:25;100731.00;;;25.90
20289;BMP180;10303;51.960;8.372;2022-07-21T13:52:51;100734.00;;;26.00
20289;BMP180;10303;51.960;8.372;2022-07-21T13:55:17;100728.00;;;26.20
20289;BMP180;10303;51.960;8.372;2022-07-21T13:57:43;100728.00;;;26.20
20289;BMP180;10303;51.960;8.372;2022-07-21T14:00:11;100730.00;;;26.30
20289;BMP180;10303;51.960;8.372;2022-07-21T14:02:38;100741.00;;;26.20
20289;BMP180;10303;51.960;8.372;2022-07-21T14:05:04;100730.00;;;26.20
20289;BMP180;10303;51.960;8.372;2022-07-21T14:07:31;100738.00;;;26.20
20289;BMP180;10303;51.960;8.372;2022-07-21T14:09:57;100736.00;;;26.10
20289;BMP180;10303;51.960;8.372;2022-07-21T14:12:23;100734.00;;;26.10
20289;BMP180;10303;51.960;8.372;2022-07-21T14:14:49;100730.00;;;26.00
20289;BMP180;10303;51.960;8.372;2022-07-21T14:17:16;100725.00;;;26.10
20289;BMP180;10303;51.960;8.372;2022-07-21T14:19:44;100732.00;;;26.10
20289;BMP180;10303;51.960;8.372;2022-07-21T14:22:14;100719.00;;;26.10
20289;BMP180;10303;51.960;8.372;2022-07-21T14:24:40;100723.00;;;26.20
20289;BMP180;10303;51.960;8.372;2022-07-21T14:27:24;100721.00;;;26.20
20289;BMP180;10303;51.960;8.372;2022-07-21T14:29:50;100720.00;;;26.20
20289;BMP180;10303;51.960;8.372;2022-07-21T14:32:19;100728.00;;;26.20
20289;BMP180;10303;51.960;8.372;2022-07-21T14:34:51;100722.00;;;26.20